Map

Track Data

SID SEASON NUMBER BASIN SUBBASIN NAME ISO_TIME NATURE LAT LON WMO_WIND WMO_PRES WMO_AGENCY TRACK_TYPE DIST2LAND LANDFALL IFLAG USA_AGENCY USA_ATCF_ID USA_LAT USA_LON USA_RECORD USA_STATUS USA_WIND USA_PRES USA_SSHS USA_R34_NE USA_R34_SE USA_R34_SW USA_R34_NW USA_R50_NE USA_R50_SE USA_R50_SW USA_R50_NW USA_R64_NE USA_R64_SE USA_R64_SW USA_R64_NW USA_POCI USA_ROCI USA_RMW USA_EYE TOKYO_LAT TOKYO_LON TOKYO_GRADE TOKYO_WIND TOKYO_PRES TOKYO_R50_DIR TOKYO_R50_LONG TOKYO_R50_SHORT TOKYO_R30_DIR TOKYO_R30_LONG TOKYO_R30_SHORT TOKYO_LAND CMA_LAT CMA_LON CMA_CAT CMA_WIND CMA_PRES HKO_LAT HKO_LON HKO_CAT HKO_WIND HKO_PRES NEWDELHI_LAT NEWDELHI_LON NEWDELHI_GRADE NEWDELHI_WIND NEWDELHI_PRES NEWDELHI_CI NEWDELHI_DP NEWDELHI_POCI REUNION_LAT REUNION_LON REUNION_TYPE REUNION_WIND REUNION_PRES REUNION_TNUM REUNION_CI REUNION_RMW REUNION_R34_NE REUNION_R34_SE REUNION_R34_SW REUNION_R34_NW REUNION_R50_NE REUNION_R50_SE REUNION_R50_SW REUNION_R50_NW REUNION_R64_NE REUNION_R64_SE REUNION_R64_SW REUNION_R64_NW BOM_LAT BOM_LON BOM_TYPE BOM_WIND BOM_PRES BOM_TNUM BOM_CI BOM_RMW BOM_R34_NE BOM_R34_SE BOM_R34_SW BOM_R34_NW BOM_R50_NE BOM_R50_SE BOM_R50_SW BOM_R50_NW BOM_R64_NE BOM_R64_SE BOM_R64_SW BOM_R64_NW BOM_ROCI BOM_POCI BOM_EYE BOM_POS_METHOD BOM_PRES_METHOD NADI_LAT NADI_LON NADI_CAT NADI_WIND NADI_PRES WELLINGTON_LAT WELLINGTON_LON WELLINGTON_WIND WELLINGTON_PRES DS824_LAT DS824_LON DS824_STAGE DS824_WIND DS824_PRES TD9636_LAT TD9636_LON TD9636_STAGE TD9636_WIND TD9636_PRES TD9635_LAT TD9635_LON TD9635_WIND TD9635_PRES TD9635_ROCI NEUMANN_LAT NEUMANN_LON NEUMANN_CLASS NEUMANN_WIND NEUMANN_PRES MLC_LAT MLC_LON MLC_CLASS MLC_WIND MLC_PRES USA_GUST BOM_GUST BOM_GUST_PER REUNION_GUST REUNION_GUST_PER USA_SEAHGT USA_SEARAD_NE USA_SEARAD_SE USA_SEARAD_SW USA_SEARAD_NW STORM_SPEED STORM_DIR
1921042S18069 1921 10 SI MM NOT_NAMED 1921-02-11 06:00:00 NR -17.7000 69.0000 reunion main 1212 1189 _____O________ -1 -17.7000 69.0000 99 9.90000 4 239
1921042S18069 1921 10 SI MM NOT_NAMED 1921-02-11 09:00:00 NR -17.7945 68.8365 main 1189 1176 _____P________ -1 -17.7945 68.8365 99 4 239
1921042S18069 1921 10 SI MM NOT_NAMED 1921-02-11 12:00:00 NR -17.8918 68.6695 main 1176 1152 _____P________ -1 -17.8918 68.6695 99 4 238
1921042S18069 1921 10 SI MM NOT_NAMED 1921-02-11 15:00:00 NR -17.9950 68.4955 main 1152 1129 _____P________ -1 -17.9950 68.4955 99 4 238
1921042S18069 1921 10 SI MM NOT_NAMED 1921-02-11 18:00:00 NR -18.1068 68.3112 main 1129 1106 _____P________ -1 -18.1068 68.3112 99 4 237
1921042S18069 1921 10 SI MM NOT_NAMED 1921-02-11 21:00:00 NR -18.2303 68.1129 main 1106 1080 _____P________ -1 -18.2303 68.1129 99 5 236
1921042S18069 1921 10 SI MM NOT_NAMED 1921-02-12 00:00:00 NR -18.3684 67.8974 main 1080 1057 _____P________ -1 -18.3684 67.8974 99 5 236
1921042S18069 1921 10 SI MM NOT_NAMED 1921-02-12 03:00:00 NR -18.5240 67.6609 main 1057 1021 _____P________ -1 -18.5240 67.6609 99 6 235
1921042S18069 1921 10 SI MM NOT_NAMED 1921-02-12 06:00:00 NR -18.7000 67.4000 reunion main 1021 986 _____O________ -1 -18.7000 67.4000 99 9.90000 6 234
1921042S18069 1921 10 SI MM NOT_NAMED 1921-02-12 09:00:00 NR -18.8980 67.1126 main 986 951 _____P________ -1 -18.8980 67.1126 99 7 234
1921042S18069 1921 10 SI MM NOT_NAMED 1921-02-12 12:00:00 NR -19.1153 66.8028 main 951 916 _____P________ -1 -19.1153 66.8028 99 8 233
1921042S18069 1921 10 SI MM NOT_NAMED 1921-02-12 15:00:00 NR -19.3477 66.4763 main 916 881 _____P________ -1 -19.3477 66.4763 99 8 233
1921042S18069 1921 10 SI MM NOT_NAMED 1921-02-12 18:00:00 NR -19.5913 66.1391 main 870 837 _____P________ -1 -19.5913 66.1391 99 8 232
1921042S18069 1921 10 SI MM NOT_NAMED 1921-02-12 21:00:00 NR -19.8422 65.7969 main 837 803 _____P________ -1 -19.8422 65.7969 99 8 232
1921042S18069 1921 10 SI MM NOT_NAMED 1921-02-13 00:00:00 NR -20.0965 65.4556 main 803 761 _____P________ -1 -20.0965 65.4556 99 8 231
1921042S18069 1921 10 SI MM NOT_NAMED 1921-02-13 03:00:00 NR -20.3504 65.1213 main 760 729 _____P________ -1 -20.3504 65.1213 99 8 231
1921042S18069 1921 10 SI MM NOT_NAMED 1921-02-13 06:00:00 NR -20.6000 64.8000 reunion main 729 699 _____O________ -1 -20.6000 64.8000 99 9.90000 8 230
1921042S18069 1921 10 SI MM NOT_NAMED 1921-02-13 09:00:00 NR -20.8350 64.5023 main 699 670 _____P________ -1 -20.8350 64.5023 99 7 229
1921042S18069 1921 10 SI MM NOT_NAMED 1921-02-13 12:00:00 NR -21.0687 64.2140 main 671 652 _____P________ -1 -21.0687 64.2140 99 7 229
1921042S18069 1921 10 SI MM NOT_NAMED 1921-02-13 15:00:00 NR -21.3004 63.9354 main 643 627 _____P________ -1 -21.3004 63.9354 99 7 228
1921042S18069 1921 10 SI MM NOT_NAMED 1921-02-13 18:00:00 NR -21.5293 63.6668 main 627 601 _____P________ -1 -21.5293 63.6668 99 7 227
1921042S18069 1921 10 SI MM NOT_NAMED 1921-02-13 21:00:00 NR -21.7545 63.4086 main 604 587 _____P________ -1 -21.7545 63.4086 99 6 226
1921042S18069 1921 10 SI MM NOT_NAMED 1921-02-14 00:00:00 NR -21.9752 63.1611 main 591 569 _____P________ -1 -21.9752 63.1611 99 6 226
1921042S18069 1921 10 SI MM NOT_NAMED 1921-02-14 03:00:00 NR -22.1907 62.9248 main 569 558 _____P________ -1 -22.1907 62.9248 99 6 225
1921042S18069 1921 10 SI MM NOT_NAMED 1921-02-14 06:00:00 NR -22.4000 62.7000 reunion main 558 544 _____O________ -1 -22.4000 62.7000 99 9.90000 6 224
1921042S18069 1921 10 SI MM NOT_NAMED 1921-02-14 09:00:00 NR -22.6027 62.4868 main 548 535 _____P________ -1 -22.6027 62.4868 99 6 224
1921042S18069 1921 10 SI MM NOT_NAMED 1921-02-14 12:00:00 NR -22.7994 62.2840 main 540 527 _____P________ -1 -22.7994 62.2840 99 5 223
1921042S18069 1921 10 SI MM NOT_NAMED 1921-02-14 15:00:00 NR -22.9908 62.0901 main 533 521 _____P________ -1 -22.9908 62.0901 99 5 223
1921042S18069 1921 10 SI MM NOT_NAMED 1921-02-14 18:00:00 NR -23.1780 61.9035 main 528 517 _____P________ -1 -23.1780 61.9035 99 5 222
1921042S18069 1921 10 SI MM NOT_NAMED 1921-02-14 21:00:00 NR -23.3616 61.7228 main 524 516 _____P________ -1 -23.3616 61.7228 99 5 222
1921042S18069 1921 10 SI MM NOT_NAMED 1921-02-15 00:00:00 NR -23.5427 61.5464 main 515 515 _____P________ -1 -23.5427 61.5464 99 5 222
1921042S18069 1921 10 SI MM NOT_NAMED 1921-02-15 03:00:00 NR -23.7218 61.3726 main 522 522 _____P________ -1 -23.7218 61.3726 99 5 222
1921042S18069 1921 10 SI MM NOT_NAMED 1921-02-15 06:00:00 NR -23.9000 61.2000 reunion main 523 _____O________ -1 -23.9000 61.2000 99 9.90000 5 221

About IBTrACS Database

This database is a web-friendly format of International Best Track Archive for Climate Stewardship (IBTrACS), a global best track data archive curated by NOAA dating back to 1842.

Updated: 2021-10-21